Time;durP1;ratioP1;P1;durP2;ratioP2;P2;SDS_P1;SDS_P2;PMS_P1;PMS_P2;Temp;Humidity;BMP_temperature;BMP_pressure;BME280_temperature;BME280_humidity;BME280_pressure;Samples;Min_cycle;Max_cycle;Signal;HPM_P1;HPM_P2
2021/05/29 00:00:54;;;;;;;4.03;3.00;;;15.50;83.30;;;;;;5056217;28;20056;-84
2021/05/29 00:03:25;;;;;;;4.38;2.83;;;15.40;83.20;;;;;;5070469;28;20028;-86
2021/05/29 00:05:50;;;;;;;4.97;2.83;;;15.40;83.60;;;;;;5056251;28;20036;-85
2021/05/29 00:08:16;;;;;;;4.38;2.90;;;15.40;83.80;;;;;;5069272;28;20370;-85
2021/05/29 00:10:46;;;;;;;5.13;2.83;;;15.30;83.60;;;;;;5055708;28;20508;-86
2021/05/29 00:13:13;;;;;;;4.30;3.05;;;15.30;83.70;;;;;;5072268;28;20044;-85
2021/05/29 00:15:40;;;;;;;6.57;2.80;;;15.30;84.10;;;;;;5055750;28;20024;-85
2021/05/29 00:18:07;;;;;;;6.43;3.63;;;15.20;84.00;;;;;;5073776;28;20024;-84
2021/05/29 00:20:34;;;;;;;6.10;3.28;;;15.20;84.50;;;;;;5055697;28;20024;-85
2021/05/29 00:23:00;;;;;;;4.80;3.30;;;15.10;85.00;;;;;;5052618;28;20425;-85
2021/05/29 00:25:26;;;;;;;5.97;3.38;;;15.20;85.20;;;;;;5057438;28;20059;-85
2021/05/29 00:27:52;;;;;;;5.57;3.25;;;15.10;85.20;;;;;;5038192;28;20056;-84
2021/05/29 00:30:18;;;;;;;7.25;4.00;;;15.10;85.40;;;;;;5042041;28;20063;-85
2021/05/29 00:32:44;;;;;;;6.55;3.83;;;15.10;85.60;;;;;;5060332;28;20025;-84
2021/05/29 00:35:10;;;;;;;7.20;4.07;;;15.00;85.60;;;;;;5033505;28;20405;-85
2021/05/29 00:37:36;;;;;;;6.80;4.25;;;15.00;85.70;;;;;;5054471;28;20370;-84
2021/05/29 00:40:04;;;;;;;8.57;4.90;;;15.00;85.60;;;;;;5058513;28;20063;-85
2021/05/29 00:42:30;;;;;;;7.45;5.07;;;14.90;86.20;;;;;;5072038;28;20020;-85
2021/05/29 00:44:57;;;;;;;10.80;4.90;;;14.90;86.00;;;;;;5071260;28;20515;-84
2021/05/29 00:47:25;;;;;;;8.10;4.40;;;14.90;86.50;;;;;;5071878;28;20033;-85
2021/05/29 00:49:53;;;;;;;6.78;4.38;;;14.80;86.50;;;;;;5054440;28;20044;-85
2021/05/29 00:52:20;;;;;;;7.38;4.75;;;14.80;86.60;;;;;;5058495;28;20032;-84
2021/05/29 00:54:46;;;;;;;7.63;4.88;;;14.80;86.70;;;;;;5075034;28;20024;-85
2021/05/29 00:57:13;;;;;;;6.97;4.80;;;14.80;87.00;;;;;;5061964;28;20021;-85
2021/05/29 00:59:39;;;;;;;6.93;4.20;;;14.70;87.20;;;;;;5069297;28;20035;-84
2021/05/29 01:02:08;;;;;;;7.80;4.32;;;14.70;87.30;;;;;;5058510;28;20035;-85
2021/05/29 01:04:34;;;;;;;8.13;4.57;;;14.70;87.60;;;;;;5069431;28;20020;-85
2021/05/29 01:07:00;;;;;;;8.25;4.75;;;14.70;87.80;;;;;;5071790;28;20075;-85
2021/05/29 01:09:26;;;;;;;7.50;4.80;;;14.60;87.60;;;;;;5054760;28;20415;-84
2021/05/29 01:11:53;;;;;;;5.43;4.32;;;14.70;87.90;;;;;;5061356;28;20083;-84
2021/05/29 01:14:19;;;;;;;8.95;4.60;;;14.60;87.90;;;;;;5071139;28;20029;-85
2021/05/29 01:16:59;;;;;;;8.20;4.32;;;14.60;88.70;;;;;;5037965;28;20115;-85
2021/05/29 01:19:25;;;;;;;8.25;4.72;;;14.60;88.00;;;;;;5071110;28;20036;-84
2021/05/29 01:21:52;;;;;;;6.00;4.18;;;14.60;88.00;;;;;;5040886;28;20393;-85
2021/05/29 01:24:19;;;;;;;7.15;3.55;;;14.50;87.60;;;;;;5072156;28;20047;-85
2021/05/29 01:26:46;;;;;;;7.13;4.38;;;14.50;87.30;;;;;;5054445;28;20512;-85
2021/05/29 01:29:12;;;;;;;6.93;3.80;;;14.40;87.30;;;;;;5048788;28;20033;-85
2021/05/29 01:31:38;;;;;;;6.03;3.78;;;14.40;87.10;;;;;;5046501;28;20035;-85
2021/05/29 01:34:04;;;;;;;7.38;3.92;;;14.30;87.20;;;;;;5037549;28;20020;-85
2021/05/29 01:36:30;;;;;;;5.00;3.33;;;14.30;87.40;;;;;;5070962;28;20380;-85
2021/05/29 01:38:56;;;;;;;6.75;3.45;;;14.30;87.20;;;;;;5053506;28;20036;-85
2021/05/29 01:41:24;;;;;;;6.13;3.65;;;14.20;87.60;;;;;;5071935;28;20064;-85
2021/05/29 01:43:51;;;;;;;6.47;3.47;;;14.20;87.60;;;;;;5064760;28;20052;-85
2021/05/29 01:46:19;;;;;;;5.72;3.67;;;14.20;87.60;;;;;;5070828;28;20111;-85
2021/05/29 01:48:47;;;;;;;6.00;3.17;;;14.10;87.80;;;;;;5070769;28;20427;-85
2021/05/29 01:51:14;;;;;;;5.10;3.17;;;14.10;87.70;;;;;;5054363;28;20016;-86
2021/05/29 01:53:40;;;;;;;5.65;3.13;;;14.10;88.10;;;;;;5070353;28;20029;-85
2021/05/29 01:56:07;;;;;;;6.47;3.67;;;14.00;88.10;;;;;;5056910;28;20461;-85
2021/05/29 01:58:38;;;;;;;6.22;3.60;;;14.00;88.10;;;;;;5071656;28;20056;-86
2021/05/29 02:01:05;;;;;;;6.43;3.92;;;14.00;88.20;;;;;;5070734;28;20037;-85
2021/05/29 02:03:31;;;;;;;5.32;3.17;;;13.90;88.10;;;;;;5071606;28;20036;-85
2021/05/29 02:05:57;;;;;;;6.13;3.03;;;13.90;88.30;;;;;;5070395;28;20024;-85
2021/05/29 02:08:22;;;;;;;4.53;2.63;;;13.80;88.50;;;;;;5070049;28;20071;-85
2021/05/29 02:10:49;;;;;;;5.85;3.00;;;13.80;88.80;;;;;;5053817;28;20031;-85
2021/05/29 02:13:24;;;;;;;5.38;3.22;;;13.80;89.00;;;;;;5053572;28;20048;-86
2021/05/29 02:15:50;;;;;;;5.00;2.85;;;13.70;88.80;;;;;;5070534;28;20036;-86
2021/05/29 02:18:16;;;;;;;4.45;2.88;;;13.70;89.20;;;;;;5070161;28;20025;-84
2021/05/29 02:20:54;;;;;;;4.88;2.72;;;13.60;89.30;;;;;;5053429;28;20032;-85
2021/05/29 02:23:46;;;;;;;5.60;3.20;;;13.60;89.70;;;;;;5070309;28;20452;-86
2021/05/29 02:26:14;;;;;;;4.93;2.88;;;13.60;89.20;;;;;;5087202;28;20090;-85
2021/05/29 02:28:43;;;;;;;4.10;2.78;;;13.50;89.30;;;;;;5069793;28;20024;-85
2021/05/29 02:31:10;;;;;;;4.53;2.70;;;13.50;89.00;;;;;;5070034;28;20074;-85
2021/05/29 02:33:36;;;;;;;4.75;2.95;;;13.40;89.50;;;;;;5053240;28;20103;-85
2021/05/29 02:36:04;;;;;;;5.40;3.00;;;13.50;89.80;;;;;;5087161;28;20047;-86
2021/05/29 02:38:33;;;;;;;6.45;3.50;;;13.40;89.60;;;;;;5053377;28;20115;-85
2021/05/29 02:40:59;;;;;;;5.32;3.13;;;13.40;89.70;;;;;;5037157;28;20033;-86
2021/05/29 02:43:24;;;;;;;5.65;3.17;;;13.40;89.70;;;;;;5053055;28;20035;-85
2021/05/29 02:45:50;;;;;;;6.68;3.15;;;13.30;89.60;;;;;;5036360;28;20465;-85
2021/05/29 02:48:16;;;;;;;6.57;3.60;;;13.30;89.90;;;;;;5053525;28;20563;-85
2021/05/29 02:50:43;;;;;;;7.28;4.13;;;13.30;90.10;;;;;;5052957;28;20025;-85
2021/05/29 02:53:10;;;;;;;6.63;4.07;;;13.30;90.10;;;;;;5053330;28;20017;-85
2021/05/29 02:55:37;;;;;;;6.15;3.33;;;13.20;90.20;;;;;;5069689;28;20033;-85
2021/05/29 02:58:03;;;;;;;5.93;3.42;;;13.20;90.10;;;;;;5069893;28;20037;-85
2021/05/29 03:00:43;;;;;;;8.30;4.30;;;13.20;90.10;;;;;;5069366;28;20025;-85
2021/05/29 03:03:11;;;;;;;5.88;3.83;;;13.20;90.40;;;;;;5059108;28;20480;-85
2021/05/29 03:05:39;;;;;;;7.13;3.83;;;13.20;90.40;;;;;;5052802;28;20040;-87
2021/05/29 03:08:05;;;;;;;6.35;3.83;;;13.10;90.40;;;;;;5059745;28;20033;-85
2021/05/29 03:10:32;;;;;;;6.55;4.05;;;13.10;90.40;;;;;;5075494;28;20361;-86
2021/05/29 03:12:59;;;;;;;5.65;4.15;;;13.10;90.40;;;;;;5054677;28;20049;-85
2021/05/29 03:15:26;;;;;;;5.93;3.92;;;13.00;90.60;;;;;;5060301;28;20024;-86
2021/05/29 03:17:53;;;;;;;6.43;3.95;;;13.00;90.50;;;;;;5074370;28;20105;-85
2021/05/29 03:20:22;;;;;;;7.38;4.05;;;13.00;90.60;;;;;;5051910;28;20028;-85
2021/05/29 03:22:48;;;;;;;7.07;4.25;;;12.90;90.60;;;;;;5065161;28;20032;-86
2021/05/29 03:25:15;;;;;;;7.40;4.47;;;12.90;90.50;;;;;;5071352;28;20099;-85
2021/05/29 03:27:44;;;;;;;7.55;4.18;;;12.80;90.60;;;;;;5045715;28;20055;-85
2021/05/29 03:30:12;;;;;;;6.85;4.18;;;12.80;90.80;;;;;;5074648;28;20040;-85
2021/05/29 03:32:39;;;;;;;6.28;4.07;;;12.80;90.80;;;;;;5056750;28;20036;-85
2021/05/29 03:35:06;;;;;;;8.38;4.43;;;12.80;90.90;;;;;;5073286;28;20016;-86
2021/05/29 03:37:32;;;;;;;5.50;4.05;;;12.70;90.90;;;;;;5073296;28;20075;-85
2021/05/29 03:39:57;;;;;;;6.45;4.10;;;12.70;91.00;;;;;;5074560;28;20034;-85
2021/05/29 03:42:26;;;;;;;7.13;4.10;;;12.70;90.90;;;;;;5072946;28;20036;-87
2021/05/29 03:44:52;;;;;;;8.23;4.53;;;12.70;91.00;;;;;;5074848;28;20024;-85
2021/05/29 03:47:18;;;;;;;8.50;4.68;;;12.60;90.90;;;;;;5073195;28;20059;-85
2021/05/29 03:49:44;;;;;;;6.53;4.30;;;12.60;91.10;;;;;;5064068;28;20060;-85
2021/05/29 03:52:11;;;;;;;6.05;4.47;;;12.60;91.30;;;;;;5060483;28;20433;-85
2021/05/29 03:54:36;;;;;;;5.85;4.40;;;12.60;91.70;;;;;;5061688;28;20028;-85
2021/05/29 03:57:02;;;;;;;7.97;5.32;;;12.60;91.40;;;;;;5074578;28;20078;-85
2021/05/29 03:59:28;;;;;;;6.65;4.15;;;12.50;91.60;;;;;;5072669;28;20482;-86
2021/05/29 04:01:54;;;;;;;6.07;4.22;;;12.50;91.70;;;;;;5061669;28;20033;-86
2021/05/29 04:04:19;;;;;;;7.63;4.38;;;12.50;91.70;;;;;;5070520;28;20032;-85
2021/05/29 04:06:45;;;;;;;8.63;4.95;;;12.50;91.90;;;;;;5052578;28;20060;-85
2021/05/29 04:09:12;;;;;;;8.82;4.28;;;12.50;92.00;;;;;;5063306;28;20032;-86
2021/05/29 04:11:38;;;;;;;9.93;4.45;;;12.50;92.10;;;;;;5072507;28;20016;-86
2021/05/29 04:14:05;;;;;;;7.32;4.45;;;12.50;92.20;;;;;;5073477;28;20055;-86
2021/05/29 04:16:31;;;;;;;6.47;4.60;;;12.50;92.20;;;;;;5072275;28;20032;-85
2021/05/29 04:18:59;;;;;;;7.57;4.78;;;12.40;92.30;;;;;;5055899;28;20131;-86
2021/05/29 04:21:25;;;;;;;7.20;4.70;;;12.50;92.30;;;;;;5056131;28;20610;-85
2021/05/29 04:23:51;;;;;;;7.30;4.55;;;12.50;92.30;;;;;;5073829;28;20103;-86
2021/05/29 04:26:17;;;;;;;7.05;5.20;;;12.50;92.30;;;;;;5056121;28;20381;-85
2021/05/29 04:28:43;;;;;;;8.80;4.90;;;12.40;92.30;;;;;;5071884;28;20024;-86
2021/05/29 04:31:09;;;;;;;9.23;5.10;;;12.50;92.40;;;;;;5039278;28;20032;-86
2021/05/29 04:33:35;;;;;;;7.95;5.35;;;12.50;92.50;;;;;;5072018;28;20388;-86
2021/05/29 04:36:00;;;;;;;9.20;5.07;;;12.50;92.50;;;;;;5055858;28;20107;-86
2021/05/29 04:38:26;;;;;;;8.90;5.93;;;12.50;92.50;;;;;;5055365;28;20396;-86
2021/05/29 04:40:53;;;;;;;9.30;6.20;;;12.50;92.70;;;;;;5049433;28;20569;-85
2021/05/29 04:43:19;;;;;;;9.43;6.10;;;12.50;92.60;;;;;;5053579;28;20048;-86
2021/05/29 04:45:45;;;;;;;10.20;6.38;;;12.50;92.70;;;;;;5018925;28;20385;-86
2021/05/29 04:48:11;;;;;;;13.88;5.65;;;12.50;92.70;;;;;;5072303;28;20029;-86
2021/05/29 04:53:22;;;;;;;9.43;5.95;;;12.50;92.90;;;;;;5073509;28;20384;-86
2021/05/29 04:55:47;;;;;;;8.30;5.82;;;12.50;93.00;;;;;;5040850;28;20025;-85
2021/05/29 04:58:13;;;;;;;11.13;6.68;;;12.50;93.10;;;;;;5055206;28;20048;-86
2021/05/29 05:00:39;;;;;;;11.07;6.25;;;12.50;93.20;;;;;;5070407;28;20484;-86
2021/05/29 05:03:04;;;;;;;9.18;6.30;;;12.50;93.20;;;;;;5025737;28;20090;-86
2021/05/29 05:05:30;;;;;;;11.13;6.53;;;12.60;93.30;;;;;;5071740;28;20028;-87
2021/05/29 05:07:56;;;;;;;9.13;6.70;;;12.60;93.40;;;;;;5051805;28;20025;-86
2021/05/29 05:10:21;;;;;;;9.50;6.38;;;12.60;93.50;;;;;;5055078;28;20469;-86
2021/05/29 05:12:47;;;;;;;10.85;6.72;;;12.60;93.50;;;;;;5072700;28;20079;-86
2021/05/29 05:15:14;;;;;;;8.98;6.70;;;12.70;93.70;;;;;;5040013;28;20112;-85
2021/05/29 05:17:39;;;;;;;8.65;6.22;;;12.70;93.70;;;;;;5054891;28;20021;-86
2021/05/29 05:20:06;;;;;;;9.80;6.30;;;12.70;93.80;;;;;;5071479;28;20455;-85
2021/05/29 05:22:31;;;;;;;9.82;6.43;;;12.80;93.80;;;;;;5072297;28;20542;-85
2021/05/29 05:24:57;;;;;;;10.60;6.55;;;12.80;93.90;;;;;;5060126;28;20037;-86
2021/05/29 05:27:22;;;;;;;10.38;6.68;;;12.80;93.90;;;;;;5071540;28;20352;-86
2021/05/29 05:29:48;;;;;;;10.18;6.15;;;12.90;94.00;;;;;;5053670;28;20099;-86
2021/05/29 05:32:14;;;;;;;8.60;5.97;;;12.90;94.00;;;;;;5072454;28;20035;-86
2021/05/29 05:34:39;;;;;;;9.80;6.53;;;12.90;94.10;;;;;;5054544;28;20389;-86
2021/05/29 05:37:07;;;;;;;8.90;6.63;;;12.90;94.00;;;;;;5051374;28;20040;-86
2021/05/29 05:39:33;;;;;;;11.93;7.13;;;13.00;93.90;;;;;;5040725;28;20126;-87
2021/05/29 05:41:58;;;;;;;9.45;6.50;;;13.00;93.70;;;;;;5052460;28;20060;-86
2021/05/29 05:44:24;;;;;;;10.40;6.95;;;13.00;93.70;;;;;;5054275;28;20020;-85
2021/05/29 05:46:50;;;;;;;9.18;6.25;;;13.00;93.60;;;;;;5070677;28;20033;-85
2021/05/29 05:49:16;;;;;;;9.00;6.28;;;13.10;93.70;;;;;;5052160;28;20037;-86
2021/05/29 05:51:41;;;;;;;10.85;7.15;;;13.20;93.70;;;;;;5037569;28;20020;-86
2021/05/29 05:54:07;;;;;;;11.00;6.45;;;13.20;93.80;;;;;;5072017;28;20108;-86
2021/05/29 05:56:32;;;;;;;11.98;7.85;;;13.20;93.70;;;;;;5054041;28;20017;-88
2021/05/29 05:58:58;;;;;;;12.55;7.60;;;13.20;93.60;;;;;;5053873;28;20558;-86
2021/05/29 06:01:25;;;;;;;11.82;7.47;;;13.20;93.40;;;;;;5053963;28;20032;-86
2021/05/29 06:03:52;;;;;;;9.65;6.65;;;13.30;93.30;;;;;;5071718;28;20047;-86
2021/05/29 06:06:18;;;;;;;9.75;7.03;;;13.30;93.20;;;;;;5070260;28;20467;-86
2021/05/29 06:08:44;;;;;;;10.63;7.05;;;13.40;93.30;;;;;;5079161;28;20059;-86
2021/05/29 06:11:10;;;;;;;9.80;7.18;;;13.40;93.30;;;;;;5054306;28;20448;-86
2021/05/29 06:21:34;;;;;;;12.55;7.60;;;13.50;93.00;;;;;;5056799;28;20130;-86
2021/05/29 06:24:00;;;;;;;10.73;6.88;;;13.60;93.20;;;;;;5053578;28;20493;-86
2021/05/29 06:26:26;;;;;;;9.68;6.93;;;13.60;92.90;;;;;;5070106;28;20031;-85
2021/05/29 06:28:52;;;;;;;10.25;6.90;;;13.70;92.90;;;;;;5053455;28;20102;-86
2021/05/29 06:31:18;;;;;;;10.25;7.25;;;13.70;92.90;;;;;;5071282;28;20469;-85
2021/05/29 06:33:44;;;;;;;12.23;7.57;;;13.80;92.90;;;;;;5070382;28;20029;-87
2021/05/29 06:36:10;;;;;;;10.23;6.68;;;13.80;92.70;;;;;;5071482;28;20055;-86
2021/05/29 06:38:36;;;;;;;9.02;6.80;;;13.90;92.70;;;;;;5033342;28;20033;-86
2021/05/29 06:41:02;;;;;;;10.32;6.88;;;14.00;92.70;;;;;;5036837;28;20481;-85
2021/05/29 06:43:28;;;;;;;9.73;6.70;;;14.00;92.60;;;;;;5053320;28;20063;-85
2021/05/29 06:45:54;;;;;;;10.38;7.60;;;14.10;92.70;;;;;;5049878;28;20064;-85
2021/05/29 06:48:20;;;;;;;10.02;6.85;;;14.10;92.40;;;;;;5047998;28;20082;-85
2021/05/29 06:50:52;;;;;;;10.02;6.60;;;14.20;92.50;;;;;;5070152;28;20029;-85
2021/05/29 06:53:22;;;;;;;11.70;7.53;;;14.30;92.50;;;;;;5039970;28;20060;-85
2021/05/29 06:58:50;;;;;;;10.68;8.30;;;14.40;92.50;;;;;;5070818;28;20102;-84
2021/05/29 07:01:18;;;;;;;12.50;8.65;;;14.50;92.30;;;;;;5070102;28;20070;-86
2021/05/29 07:03:45;;;;;;;13.80;8.80;;;14.50;92.10;;;;;;5052630;28;20051;-85
2021/05/29 07:06:11;;;;;;;11.40;9.30;;;14.60;92.10;;;;;;5049040;28;20472;-86
2021/05/29 07:08:37;;;;;;;11.68;8.98;;;14.70;91.90;;;;;;5054916;28;20080;-85
2021/05/29 07:11:03;;;;;;;10.05;7.75;;;14.70;91.90;;;;;;5053562;28;20034;-86
2021/05/29 07:13:29;;;;;;;10.65;8.30;;;14.80;91.80;;;;;;5049774;28;20135;-85
2021/05/29 07:15:55;;;;;;;12.13;8.73;;;14.80;91.50;;;;;;5036078;28;20037;-85
2021/05/29 07:18:23;;;;;;;10.43;7.95;;;14.90;91.40;;;;;;5064235;28;20021;-87
2021/05/29 07:20:49;;;;;;;11.38;8.35;;;15.00;91.40;;;;;;5032313;28;20037;-86
2021/05/29 07:23:15;;;;;;;10.45;8.60;;;15.00;91.30;;;;;;5046160;28;20496;-85
2021/05/29 07:25:42;;;;;;;10.65;7.95;;;15.10;91.30;;;;;;5067995;28;20100;-87
2021/05/29 07:28:08;;;;;;;12.13;8.88;;;15.20;91.00;;;;;;5035596;28;20036;-86
2021/05/29 07:30:35;;;;;;;12.30;9.73;;;15.20;91.00;;;;;;5065254;28;20091;-84
2021/05/29 07:33:01;;;;;;;11.32;8.70;;;15.30;90.80;;;;;;5071227;28;20025;-86
2021/05/29 07:35:27;;;;;;;9.68;7.70;;;15.40;90.70;;;;;;5053956;28;20765;-84
2021/05/29 07:37:54;;;;;;;11.07;7.68;;;15.40;90.90;;;;;;5069769;28;20108;-86
2021/05/29 07:40:19;;;;;;;10.77;7.80;;;15.50;90.80;;;;;;5050455;28;20033;-85
2021/05/29 07:42:45;;;;;;;10.95;7.70;;;15.60;90.80;;;;;;5069439;28;20039;-86
2021/05/29 07:45:11;;;;;;;11.93;8.93;;;15.70;90.80;;;;;;5051844;28;20032;-85
2021/05/29 07:47:37;;;;;;;10.20;7.85;;;15.80;90.70;;;;;;5051881;28;20075;-85
2021/05/29 07:50:05;;;;;;;9.38;7.50;;;15.90;90.70;;;;;;5033522;28;20048;-85
2021/05/29 07:52:31;;;;;;;11.15;7.50;;;15.90;90.60;;;;;;5065655;28;20016;-85
2021/05/29 07:54:56;;;;;;;11.38;7.85;;;16.10;90.30;;;;;;5065608;28;20091;-85
2021/05/29 07:57:22;;;;;;;10.45;7.53;;;16.20;90.20;;;;;;5073450;28;20071;-85
2021/05/29 07:59:48;;;;;;;8.82;7.82;;;16.20;90.00;;;;;;5070581;28;20449;-85
2021/05/29 08:02:13;;;;;;;13.65;9.02;;;16.30;90.00;;;;;;5072212;28;20455;-85
2021/05/29 08:04:40;;;;;;;11.77;7.65;;;16.40;89.20;;;;;;5071757;28;20504;-84
2021/05/29 08:07:06;;;;;;;10.80;7.15;;;16.40;89.30;;;;;;5042795;28;20052;-86
2021/05/29 08:09:31;;;;;;;14.13;7.40;;;16.50;89.30;;;;;;5059360;28;20552;-85
2021/05/29 08:11:57;;;;;;;10.05;6.70;;;16.60;88.90;;;;;;5056034;28;20028;-85
2021/05/29 08:14:23;;;;;;;9.70;6.65;;;16.70;88.90;;;;;;5071632;28;20060;-85
2021/05/29 08:16:49;;;;;;;9.35;6.90;;;16.80;88.60;;;;;;5052768;28;20164;-84
2021/05/29 08:19:14;;;;;;;8.30;6.38;;;16.90;88.20;;;;;;5056471;28;20405;-85
2021/05/29 08:21:43;;;;;;;13.13;8.32;;;16.90;87.00;;;;;;5056577;28;20028;-85
2021/05/29 08:24:11;;;;;;;9.95;7.50;;;17.00;87.20;;;;;;5072714;28;20040;-85
2021/05/29 08:26:44;;;;;;;8.13;6.60;;;17.10;87.20;;;;;;5056948;28;20469;-90
2021/05/29 08:29:13;;;;;;;9.65;6.75;;;17.20;87.30;;;;;;5055916;28;20032;-87
2021/05/29 08:31:42;;;;;;;9.38;7.05;;;17.30;87.20;;;;;;5071932;28;20092;-87
2021/05/29 08:34:09;;;;;;;9.38;6.53;;;17.30;85.20;;;;;;5052031;28;20035;-88
2021/05/29 08:36:35;;;;;;;10.40;7.18;;;17.40;86.40;;;;;;5067767;28;20129;-86
2021/05/29 08:39:01;;;;;;;10.13;7.72;;;17.50;86.40;;;;;;5054313;28;20059;-81
2021/05/29 08:41:27;;;;;;;10.90;7.22;;;17.50;86.00;;;;;;5025691;28;20439;-80
2021/05/29 08:43:52;;;;;;;9.20;6.45;;;17.50;85.90;;;;;;5071538;28;20028;-81
2021/05/29 08:46:18;;;;;;;11.45;6.63;;;17.60;86.00;;;;;;5054192;28;20044;-81
2021/05/29 08:48:44;;;;;;;8.68;6.75;;;17.60;85.80;;;;;;5071759;28;20116;-80
2021/05/29 08:51:13;;;;;;;9.15;6.90;;;17.70;85.60;;;;;;5035586;28;20033;-81
2021/05/29 08:53:44;;;;;;;9.35;6.82;;;17.80;85.40;;;;;;5059790;28;20021;-82
2021/05/29 08:56:11;;;;;;;8.75;6.75;;;17.80;85.70;;;;;;5054292;28;20423;-86
2021/05/29 08:58:37;;;;;;;11.02;6.97;;;17.80;83.90;;;;;;5057459;28;20032;-85
2021/05/29 09:01:04;;;;;;;8.93;6.18;;;17.80;84.20;;;;;;5057920;28;20028;-81
2021/05/29 09:04:00;;;;;;;9.27;6.25;;;17.90;84.30;;;;;;5076136;28;20048;-81
2021/05/29 09:06:26;;;;;;;7.80;5.85;;;18.00;84.30;;;;;;5061622;28;20032;-82
2021/05/29 09:08:54;;;;;;;9.43;6.82;;;18.00;85.20;;;;;;5071181;28;20023;-82
2021/05/29 09:11:45;;;;;;;9.80;6.82;;;18.10;84.50;;;;;;5061033;28;20024;-82
2021/05/29 09:14:38;;;;;;;8.02;6.00;;;18.10;84.40;;;;;;5088248;28;20770;-81
2021/05/29 09:17:06;;;;;;;9.38;6.07;;;18.20;84.30;;;;;;5066305;28;20025;-85
2021/05/29 09:20:05;;;;;;;8.73;6.00;;;18.20;84.50;;;;;;5055026;28;20062;-85
2021/05/29 09:22:55;;;;;;;9.20;6.00;;;18.20;83.30;;;;;;5059477;28;20055;-85
2021/05/29 09:25:24;;;;;;;7.13;5.38;;;18.30;83.80;;;;;;5071391;28;20039;-87
2021/05/29 09:28:05;;;;;;;8.30;5.72;;;18.40;84.00;;;;;;5093650;28;20107;-91
2021/05/29 09:30:50;;;;;;;8.60;6.15;;;18.40;84.00;;;;;;5056655;28;20487;-91
2021/05/29 09:33:21;;;;;;;8.80;6.28;;;18.50;82.60;;;;;;5055225;28;20017;-85
2021/05/29 09:36:10;;;;;;;9.88;6.63;;;18.50;82.30;;;;;;5049758;28;20032;-87
2021/05/29 09:38:45;;;;;;;11.23;6.70;;;18.60;81.00;;;;;;5042796;28;20530;-92
2021/05/29 09:41:43;;;;;;;9.15;6.75;;;18.60;81.30;;;;;;5055791;28;20193;-91
2021/05/29 09:44:11;;;;;;;10.73;6.68;;;18.60;80.50;;;;;;5051313;28;20032;-93
2021/05/29 09:46:51;;;;;;;11.07;6.88;;;18.60;80.70;;;;;;5055916;28;20025;-92
2021/05/29 09:49:17;;;;;;;9.40;6.68;;;18.60;81.30;;;;;;5054863;28;20028;-93
2021/05/29 09:51:43;;;;;;;8.25;5.97;;;18.60;80.60;;;;;;5055712;28;20027;-92
2021/05/29 09:54:10;;;;;;;8.10;6.25;;;18.60;81.60;;;;;;5054926;28;20473;-93
2021/05/29 09:56:42;;;;;;;9.80;7.00;;;18.60;81.90;;;;;;5072508;28;20059;-93
2021/05/29 09:59:20;;;;;;;9.65;8.20;;;18.60;82.30;;;;;;5055227;28;20327;-90
2021/05/29 10:01:52;;;;;;;10.98;7.85;;;18.60;79.90;;;;;;5054289;28;20027;-71
2021/05/29 10:04:27;;;;;;;9.20;6.63;;;18.60;79.60;;;;;;5080928;28;20036;-70
2021/05/29 10:06:58;;;;;;;7.68;6.32;;;18.60;79.30;;;;;;5075187;28;20033;-71
2021/05/29 10:09:25;;;;;;;;;;;18.60;80.30;;;;;;5084655;28;20047;-71
2021/05/29 10:11:50;;;;;;;9.65;6.28;;;18.60;82.10;;;;;;5071351;28;19981;-71
2021/05/29 10:14:16;;;;;;;8.75;6.00;;;18.70;81.80;;;;;;5070536;28;20497;-71
2021/05/29 10:16:42;;;;;;;7.45;5.68;;;18.70;81.20;;;;;;5083957;28;20028;-76
2021/05/29 10:19:10;;;;;;;9.55;5.75;;;18.70;81.50;;;;;;5086385;28;20055;-71
2021/05/29 10:21:36;;;;;;;8.35;6.10;;;18.80;81.80;;;;;;5070556;28;20067;-71
2021/05/29 10:24:05;;;;;;;8.27;5.97;;;18.80;80.40;;;;;;5070039;28;20524;-71
2021/05/29 10:26:31;;;;;;;6.68;4.78;;;18.90;81.20;;;;;;5070479;28;20482;-71
2021/05/29 10:28:58;;;;;;;5.55;4.10;;;19.00;81.90;;;;;;5070028;28;20134;-71
2021/05/29 10:31:29;;;;;;;7.85;5.00;;;19.10;82.90;;;;;;5070270;28;20031;-71
2021/05/29 10:33:55;;;;;;;6.40;4.50;;;19.20;82.70;;;;;;5070546;28;20055;-71
2021/05/29 10:36:43;;;;;;;6.72;3.75;;;19.20;81.60;;;;;;5069420;28;20465;-71
2021/05/29 10:39:20;;;;;;;5.85;3.70;;;19.40;81.40;;;;;;5070153;28;20029;-71
2021/05/29 10:41:54;;;;;;;4.18;3.10;;;19.40;82.10;;;;;;5065677;28;20016;-71
2021/05/29 10:44:30;;;;;;;4.43;2.90;;;19.60;82.30;;;;;;5068751;28;20423;-71
2021/05/29 10:47:09;;;;;;;4.30;3.10;;;19.70;82.20;;;;;;5070043;28;20365;-70
2021/05/29 10:49:57;;;;;;;4.10;2.85;;;19.90;81.40;;;;;;5068653;28;20024;-71
2021/05/29 10:52:37;;;;;;;5.45;3.00;;;20.00;81.20;;;;;;5070351;28;20035;-71
2021/05/29 10:55:09;;;;;;;4.03;2.75;;;20.20;81.30;;;;;;5070022;28;20032;-71
2021/05/29 10:57:53;;;;;;;4.70;3.15;;;20.30;81.20;;;;;;5070189;28;20027;-71
2021/05/29 11:00:40;;;;;;;4.28;2.92;;;20.40;81.30;;;;;;5070090;28;20103;-71
2021/05/29 11:03:21;;;;;;;3.65;2.58;;;20.60;81.30;;;;;;5057631;28;20464;-71
2021/05/29 11:05:52;;;;;;;4.22;2.97;;;20.60;81.00;;;;;;5070028;28;20013;-71
2021/05/29 11:08:47;;;;;;;4.25;3.00;;;20.70;79.90;;;;;;5069716;28;20166;-71
2021/05/29 11:11:42;;;;;;;4.18;2.83;;;20.80;80.20;;;;;;5047450;28;20026;-71
2021/05/29 11:14:11;;;;;;;4.47;2.80;;;20.90;79.90;;;;;;5079848;28;20044;-86
2021/05/29 11:16:46;;;;;;;4.18;2.67;;;21.00;78.90;;;;;;5070405;28;20040;-80
2021/05/29 11:19:14;;;;;;;6.18;2.60;;;21.00;78.60;;;;;;5069990;28;20070;-79
2021/05/29 11:21:57;;;;;;;3.15;2.38;;;21.10;78.60;;;;;;5070427;28;20048;-78
2021/05/29 11:24:23;;;;;;;4.82;2.80;;;21.20;79.10;;;;;;5069813;28;20024;-80
2021/05/29 11:26:49;;;;;;;3.55;2.58;;;21.30;79.10;;;;;;5070496;28;20476;-83
2021/05/29 11:29:14;;;;;;;3.95;2.70;;;21.30;78.30;;;;;;5072563;28;20469;-79
2021/05/29 11:31:43;;;;;;;3.85;2.72;;;21.40;77.40;;;;;;5074176;28;20033;-79
2021/05/29 11:34:09;;;;;;;9.43;3.33;;;21.40;77.50;;;;;;5074052;28;20458;-79
2021/05/29 11:36:39;;;;;;;8.35;3.33;;;21.50;75.90;;;;;;5074338;28;20024;-78
2021/05/29 11:39:12;;;;;;;5.22;2.90;;;21.50;76.10;;;;;;5073683;28;20033;-78
2021/05/29 11:41:38;;;;;;;5.10;2.78;;;21.50;75.40;;;;;;5060986;28;20260;-78
2021/05/29 11:44:06;;;;;;;3.88;2.80;;;21.50;75.10;;;;;;5072050;28;20032;-79
2021/05/29 11:46:32;;;;;;;4.53;2.75;;;21.50;74.10;;;;;;5062604;28;20116;-79
2021/05/29 11:49:08;;;;;;;4.13;2.58;;;21.60;74.30;;;;;;5057542;28;20195;-79
2021/05/29 11:51:39;;;;;;;5.35;2.92;;;21.60;75.00;;;;;;5069047;28;20051;-80
2021/05/29 11:54:11;;;;;;;5.22;2.80;;;21.60;74.80;;;;;;5059255;28;20067;-79
2021/05/29 11:56:47;;;;;;;4.47;3.00;;;21.60;75.20;;;;;;5074140;28;20112;-85
2021/05/29 11:59:14;;;;;;;4.72;3.28;;;21.60;74.40;;;;;;5072039;28;20028;-85
2021/05/29 12:01:43;;;;;;;5.50;3.03;;;21.60;73.90;;;;;;5072346;28;20449;-86
2021/05/29 12:04:23;;;;;;;3.28;2.30;;;21.60;73.50;;;;;;5070963;28;20553;-86
2021/05/29 12:06:50;;;;;;;3.85;2.45;;;21.60;72.40;;;;;;5072505;28;20079;-84
2021/05/29 12:09:17;;;;;;;3.95;2.53;;;21.60;71.70;;;;;;5073194;28;20550;-84
2021/05/29 12:11:52;;;;;;;5.05;2.88;;;21.60;71.10;;;;;;5073566;28;20017;-83
2021/05/29 12:14:25;;;;;;;3.80;2.30;;;21.60;70.80;;;;;;5081178;28;20078;-83
2021/05/29 12:16:57;;;;;;;5.25;2.92;;;21.70;71.50;;;;;;5074420;28;20103;-84
2021/05/29 12:19:45;;;;;;;5.50;3.25;;;21.70;72.70;;;;;;5073228;28;20062;-83
2021/05/29 12:22:13;;;;;;;5.78;2.97;;;21.80;73.30;;;;;;5073100;28;20036;-83
2021/05/29 12:24:51;;;;;;;4.63;3.00;;;21.70;73.20;;;;;;5093436;28;20016;-85
2021/05/29 12:27:27;;;;;;;3.90;2.60;;;21.70;73.10;;;;;;5073389;28;20028;-91
2021/05/29 12:29:57;;;;;;;3.47;2.30;;;21.70;72.30;;;;;;5077401;28;20058;-87
2021/05/29 12:32:37;;;;;;;4.77;2.60;;;21.80;72.20;;;;;;5074380;28;20078;-92
2021/05/29 12:35:07;;;;;;;3.47;2.33;;;21.90;71.00;;;;;;5063758;28;20025;-87
2021/05/29 12:37:33;;;;;;;3.97;2.50;;;21.80;71.80;;;;;;5059448;28;20048;-86
2021/05/29 12:40:03;;;;;;;5.50;2.50;;;21.80;71.60;;;;;;5055756;28;20423;-85
2021/05/29 12:42:47;;;;;;;4.03;2.72;;;21.80;71.90;;;;;;5082057;28;20029;-86
2021/05/29 12:45:29;;;;;;;4.18;2.45;;;22.00;73.00;;;;;;5053100;28;20024;-86
2021/05/29 12:48:00;;;;;;;3.42;2.20;;;22.00;72.30;;;;;;5047008;28;20029;-84
2021/05/29 12:50:26;;;;;;;;;;;22.10;71.70;;;;;;5068608;28;20021;-86
2021/05/29 12:52:59;;;;;;;4.60;2.38;;;22.10;70.40;;;;;;5078984;28;19904;-86
2021/05/29 12:55:25;;;;;;;3.67;2.35;;;22.20;70.90;;;;;;5049568;28;20025;-86
2021/05/29 12:57:53;;;;;;;3.28;2.25;;;22.20;65.30;;;;;;5043289;28;20350;-86
2021/05/29 13:00:56;;;;;;;3.55;2.35;;;22.20;68.00;;;;;;5066176;28;20538;-88
2021/05/29 13:11:49;;;;;;;4.47;2.63;;;22.30;69.40;;;;;;5069813;28;20036;-82
2021/05/29 13:14:17;;;;;;;3.72;2.47;;;22.30;69.80;;;;;;5069502;28;20518;-74
2021/05/29 13:16:53;;;;;;;4.35;2.50;;;22.30;70.30;;;;;;5070773;28;20032;-72